createdAt,value
2018-11-22T00:10:54.747Z,97004.73
2018-11-22T00:16:08.741Z,97002.66
2018-11-22T00:21:22.365Z,97010.98
2018-11-22T00:26:54.162Z,97020.74
2018-11-22T00:32:01.929Z,97023.34
2018-11-22T00:37:34.086Z,97028.88
2018-11-22T00:42:28.627Z,97027.45
2018-11-22T00:47:23.142Z,97029.81
2018-11-22T00:52:37.201Z,97025.38
2018-11-22T00:57:51.929Z,97025.09
2018-11-22T01:08:34.567Z,97033.84
2018-11-22T01:13:48.531Z,97032.59
2018-11-22T01:19:03.382Z,97035.00
2018-11-22T01:24:10.447Z,97039.48
2018-11-22T01:29:24.409Z,97029.73
2018-11-22T01:34:38.896Z,97039.30
2018-11-22T01:56:40.171Z,97031.86
2018-11-22T02:01:34.821Z,97029.48
2018-11-22T02:13:01.728Z,97031.80
2018-11-22T02:18:09.716Z,97036.70
2018-11-22T02:23:23.679Z,97038.50
2018-11-22T02:33:54.214Z,97050.52
2018-11-22T02:39:09.585Z,97044.83
2018-11-22T02:44:23.590Z,97051.31
2018-11-22T03:00:49.610Z,97050.98
2018-11-22T03:06:02.641Z,97046.56
2018-11-22T03:16:33.581Z,97053.64
2018-11-22T03:27:50.479Z,97052.06
2018-11-22T03:32:57.672Z,97061.16
2018-11-22T03:37:52.267Z,97065.38
2018-11-22T03:44:04.158Z,97060.98
2018-11-22T03:54:54.786Z,97059.77
2018-11-22T04:05:39.563Z,97069.73
2018-11-22T04:10:53.592Z,97077.36
2018-11-22T04:16:06.514Z,97069.77
2018-11-22T04:21:18.137Z,97075.06
2018-11-22T04:26:32.093Z,97076.20
2018-11-22T04:43:16.578Z,97074.63
2018-11-22T04:48:30.226Z,97077.50
2018-11-22T04:53:37.906Z,97076.74
2018-11-22T04:58:32.596Z,97078.36
2018-11-22T05:03:46.556Z,97077.86
2018-11-22T05:09:18.529Z,97085.92
2018-11-22T05:14:25.748Z,97074.55
2018-11-22T05:19:40.185Z,97071.78
2018-11-22T05:24:34.813Z,97064.66
2018-11-22T05:30:43.910Z,97080.89
2018-11-22T05:35:57.963Z,97077.86
2018-11-22T05:52:29.994Z,97076.68
2018-11-22T05:57:43.130Z,97078.51
2018-11-22T06:02:51.103Z,97077.25
2018-11-22T06:08:45.366Z,97069.73
2018-11-22T06:13:59.444Z,97070.73
2018-11-22T06:24:12.290Z,97090.66
2018-11-22T06:29:27.514Z,97090.09
2018-11-22T06:34:41.589Z,97085.74
2018-11-22T06:39:49.431Z,97083.88
2018-11-22T06:45:03.484Z,97094.95
2018-11-22T06:50:12.215Z,97099.84
2018-11-22T07:01:26.901Z,97104.64
2018-11-22T07:17:56.048Z,97123.94
2018-11-22T07:23:28.041Z,97112.87
2018-11-22T12:20:40.398Z,97100.84
2018-11-22T12:25:35.521Z,97104.63
2018-11-22T12:30:34.653Z,97108.00
2018-11-22T12:35:36.920Z,97112.55
2018-11-22T12:40:35.574Z,97117.45
2018-11-22T12:45:34.219Z,97111.87
2018-11-22T12:50:33.377Z,97117.88
2018-11-22T12:55:36.440Z,97116.93
2018-11-22T13:00:35.337Z,97110.17
2018-11-22T13:05:34.656Z,97117.55
2018-11-22T13:10:29.541Z,97110.76
2018-11-22T13:15:25.099Z,97107.06
2018-11-22T13:20:21.636Z,97102.06
2018-11-22T13:25:18.921Z,97097.19
2018-11-22T13:30:20.786Z,97090.23
2018-11-22T13:35:16.226Z,97100.98
2018-11-22T13:40:12.080Z,97089.24
2018-11-22T13:45:09.882Z,97079.56
2018-11-22T13:50:06.363Z,97082.93
2018-11-22T13:55:01.575Z,97087.13
2018-11-22T13:59:59.363Z,97083.98
2018-11-22T14:04:58.143Z,97078.17
2018-11-22T14:09:58.050Z,97076.81
2018-11-22T14:14:58.874Z,97074.52
2018-11-22T14:19:53.554Z,97077.52
2018-11-22T14:24:48.065Z,97081.54
2018-11-22T14:29:42.664Z,97084.86
2018-11-22T14:34:37.845Z,97076.17
2018-11-22T14:39:32.454Z,97074.37
2018-11-22T14:44:27.405Z,97075.45
2018-11-22T14:49:22.073Z,97085.77
2018-11-22T14:54:16.708Z,97071.02
2018-11-22T14:59:11.366Z,97069.72
2018-11-22T15:04:06.336Z,97073.47
2018-11-22T15:09:00.774Z,97076.63
2018-11-22T15:13:55.856Z,97082.77
2018-11-22T15:18:51.711Z,97089.66
2018-11-22T15:23:47.398Z,97092.75
2018-11-22T15:28:41.946Z,97085.78
2018-11-22T15:33:36.497Z,97093.43
2018-11-22T15:38:31.050Z,97093.17
2018-11-22T15:43:26.574Z,97099.67
2018-11-22T15:48:21.606Z,97109.65
2018-11-22T15:53:16.236Z,97110.39
2018-11-22T15:58:10.993Z,97116.90
2018-11-22T16:03:07.224Z,97118.76
2018-11-22T16:08:02.857Z,97122.99
2018-11-22T16:13:16.072Z,97133.30
2018-11-22T16:18:11.125Z,97131.57
2018-11-22T16:23:06.991Z,97134.73
2018-11-22T16:28:02.008Z,97135.39
2018-11-22T16:32:56.794Z,97137.92
2018-11-22T16:37:51.381Z,97128.63
2018-11-22T16:42:47.382Z,97144.13
2018-11-22T16:47:41.885Z,97140.15
2018-11-22T16:52:38.126Z,97148.49
2018-11-22T16:57:33.010Z,97154.02
2018-11-22T17:02:34.568Z,97161.23
2018-11-22T17:07:29.273Z,97161.89
2018-11-22T17:12:24.015Z,97166.56
2018-11-22T17:17:18.596Z,97180.98
2018-11-22T17:22:14.673Z,97181.02
2018-11-22T17:27:09.596Z,97184.88
2018-11-22T17:32:04.174Z,97178.70
2018-11-22T17:37:01.968Z,97184.69
2018-11-22T17:41:56.908Z,97182.93
2018-11-22T17:46:51.474Z,97184.77
2018-11-22T17:51:46.873Z,97196.63
2018-11-22T17:56:42.578Z,97195.45
2018-11-22T18:01:39.942Z,97186.88
2018-11-22T18:06:34.863Z,97191.77
2018-11-22T18:11:29.445Z,97195.55
2018-11-22T18:16:23.999Z,97201.88
2018-11-22T18:21:18.841Z,97202.32
2018-11-22T18:26:13.369Z,97196.16
2018-11-22T18:31:07.982Z,97198.76
2018-11-22T18:36:02.579Z,97211.10
2018-11-22T18:40:57.328Z,97217.64
2018-11-22T18:45:51.968Z,97224.79
2018-11-22T18:50:47.714Z,97224.66
2018-11-22T18:55:42.269Z,97223.05
2018-11-22T19:00:39.319Z,97221.75
2018-11-22T19:05:33.931Z,97212.98
2018-11-22T19:10:31.687Z,97216.28
2018-11-22T19:15:27.631Z,97218.37
2018-11-22T19:20:27.042Z,97218.70
2018-11-22T19:25:22.246Z,97225.52
2018-11-22T19:30:20.653Z,97228.77
2018-11-22T19:35:16.525Z,97217.31
2018-11-22T19:40:16.556Z,97225.86
2018-11-22T19:45:13.139Z,97232.30
2018-11-22T19:50:11.707Z,97245.26
2018-11-22T19:55:08.090Z,97244.25
2018-11-22T20:00:02.662Z,97245.06
2018-11-22T20:04:57.190Z,97250.77
2018-11-22T20:09:51.954Z,97247.83
2018-11-22T20:14:46.622Z,97253.66
2018-11-22T20:19:41.191Z,97261.26
2018-11-22T20:24:36.052Z,97266.13
2018-11-22T20:29:32.997Z,97261.76
2018-11-22T20:34:28.122Z,97268.80
2018-11-22T20:39:23.947Z,97258.59
2018-11-22T20:44:21.404Z,97273.26
2018-11-22T20:49:18.472Z,97276.95
2018-11-22T20:54:15.616Z,97275.63
2018-11-22T20:59:10.271Z,97277.94
2018-11-22T21:04:05.266Z,97277.58
2018-11-22T21:09:02.590Z,97275.97
2018-11-22T21:13:57.856Z,97281.80
2018-11-22T21:18:52.329Z,97281.30
2018-11-22T21:23:47.185Z,97280.19
2018-11-22T21:28:41.847Z,97276.91
2018-11-22T21:33:36.433Z,97286.48
2018-11-22T21:38:30.907Z,97292.46
2018-11-22T21:43:25.417Z,97285.16
2018-11-22T21:48:19.909Z,97292.94
2018-11-22T21:53:14.500Z,97293.45
2018-11-22T21:58:08.985Z,97301.58
2018-11-22T22:03:05.224Z,97287.77
2018-11-22T22:07:59.707Z,97291.84
2018-11-22T22:13:02.538Z,97295.09
2018-11-22T22:17:57.373Z,97295.87
2018-11-22T22:22:51.869Z,97298.13
2018-11-22T22:27:46.825Z,97295.41
2018-11-22T22:32:41.763Z,97292.38
2018-11-22T22:37:36.394Z,97294.50
2018-11-22T22:42:30.870Z,97296.45
2018-11-22T22:47:25.362Z,97300.33
2018-11-22T22:52:19.989Z,97300.28
2018-11-22T22:57:14.510Z,97294.45
2018-11-22T23:02:09.133Z,97289.30
2018-11-22T23:07:03.596Z,97285.27
2018-11-22T23:11:58.132Z,97282.87
2018-11-22T23:16:52.667Z,97280.87
2018-11-22T23:21:47.145Z,97291.41
2018-11-22T23:26:41.618Z,97291.59
2018-11-22T23:31:36.202Z,97286.21
2018-11-22T23:36:30.689Z,97281.67
2018-11-22T23:41:25.181Z,97282.81
2018-11-22T23:46:19.669Z,97285.10
2018-11-22T23:51:14.194Z,97287.34
2018-11-22T23:56:08.668Z,97281.80
